sensor_id;sensor_type;location;lat;lon;timestamp;pressure;altitude;pressure_sealevel;temperature;humidity
51259;BME280;37327;54.254;18.504;2023-01-31T00:04:18;99482.82;;;1.87;100.00
51259;BME280;37327;54.254;18.504;2023-01-31T00:07:25;99482.82;;;1.87;100.00
51259;BME280;37327;54.254;18.504;2023-01-31T00:10:31;99481.17;;;1.86;100.00
51259;BME280;37327;54.254;18.504;2023-01-31T00:13:39;99482.32;;;1.84;100.00
51259;BME280;37327;54.254;18.504;2023-01-31T00:16:46;99480.77;;;1.81;100.00
51259;BME280;37327;54.254;18.504;2023-01-31T00:19:54;99471.95;;;1.81;100.00
51259;BME280;37327;54.254;18.504;2023-01-31T00:23:00;99487.93;;;1.81;100.00
51259;BME280;37327;54.254;18.504;2023-01-31T00:29:22;99506.84;;;1.77;100.00
51259;BME280;37327;54.254;18.504;2023-01-31T00:32:29;99497.05;;;1.78;100.00
51259;BME280;37327;54.254;18.504;2023-01-31T00:35:39;99506.70;;;1.79;100.00
51259;BME280;37327;54.254;18.504;2023-01-31T00:38:52;99505.04;;;1.78;100.00
51259;BME280;37327;54.254;18.504;2023-01-31T00:41:59;99519.32;;;1.77;100.00
51259;BME280;37327;54.254;18.504;2023-01-31T00:45:08;99522.13;;;1.75;100.00
51259;BME280;37327;54.254;18.504;2023-01-31T00:48:15;99526.62;;;1.75;100.00
51259;BME280;37327;54.254;18.504;2023-01-31T00:51:43;99526.76;;;1.73;100.00
51259;BME280;37327;54.254;18.504;2023-01-31T00:54:51;99534.05;;;1.71;100.00
51259;BME280;37327;54.254;18.504;2023-01-31T00:57:57;99531.71;;;1.68;100.00
51259;BME280;37327;54.254;18.504;2023-01-31T01:01:10;99536.16;;;1.68;100.00
51259;BME280;37327;54.254;18.504;2023-01-31T01:04:17;99553.28;;;1.65;100.00
51259;BME280;37327;54.254;18.504;2023-01-31T01:07:24;99542.63;;;1.65;100.00
51259;BME280;37327;54.254;18.504;2023-01-31T01:10:31;99552.45;;;1.65;100.00
51259;BME280;37327;54.254;18.504;2023-01-31T01:13:38;99561.40;;;1.64;100.00
51259;BME280;37327;54.254;18.504;2023-01-31T01:16:45;99559.75;;;1.63;100.00
51259;BME280;37327;54.254;18.504;2023-01-31T01:19:52;99563.37;;;1.62;100.00
51259;BME280;37327;54.254;18.504;2023-01-31T01:23:00;99565.34;;;1.60;100.00
51259;BME280;37327;54.254;18.504;2023-01-31T01:26:13;99570.66;;;1.60;100.00
51259;BME280;37327;54.254;18.504;2023-01-31T01:29:20;99581.30;;;1.60;100.00
51259;BME280;37327;54.254;18.504;2023-01-31T01:32:27;99583.97;;;1.60;100.00
51259;BME280;37327;54.254;18.504;2023-01-31T01:35:35;99576.68;;;1.62;100.00
51259;BME280;37327;54.254;18.504;2023-01-31T01:38:43;99598.96;;;1.61;100.00
51259;BME280;37327;54.254;18.504;2023-01-31T01:41:51;99602.59;;;1.60;100.00
51259;BME280;37327;54.254;18.504;2023-01-31T01:44:59;99608.74;;;1.60;100.00
51259;BME280;37327;54.254;18.504;2023-01-31T01:48:10;99610.71;;;1.58;100.00
51259;BME280;37327;54.254;18.504;2023-01-31T01:51:19;99620.38;;;1.59;100.00
51259;BME280;37327;54.254;18.504;2023-01-31T01:54:40;99618.56;;;1.60;100.00
51259;BME280;37327;54.254;18.504;2023-01-31T01:57:51;99620.52;;;1.57;100.00
51259;BME280;37327;54.254;18.504;2023-01-31T02:00:59;99627.81;;;1.55;100.00
51259;BME280;37327;54.254;18.504;2023-01-31T02:04:10;99615.79;;;1.51;100.00
51259;BME280;37327;54.254;18.504;2023-01-31T02:07:19;99633.58;;;1.51;100.00
51259;BME280;37327;54.254;18.504;2023-01-31T02:10:44;99639.86;;;1.50;100.00
51259;BME280;37327;54.254;18.504;2023-01-31T02:13:45;99641.56;;;1.51;100.00
51259;BME280;37327;54.254;18.504;2023-01-31T02:16:54;99644.36;;;1.49;100.00
51259;BME280;37327;54.254;18.504;2023-01-31T02:30:15;99660.31;;;1.49;100.00
51259;BME280;37327;54.254;18.504;2023-01-31T02:33:29;99670.96;;;1.49;100.00
51259;BME280;37327;54.254;18.504;2023-01-31T02:36:51;99666.48;;;1.50;100.00
51259;BME280;37327;54.254;18.504;2023-01-31T02:43:24;99699.95;;;1.52;100.00
51259;BME280;37327;54.254;18.504;2023-01-31T02:46:46;99696.29;;;1.53;100.00
51259;BME280;37327;54.254;18.504;2023-01-31T02:49:59;99702.61;;;1.52;100.00
51259;BME280;37327;54.254;18.504;2023-01-31T02:53:15;99711.55;;;1.51;100.00
51259;BME280;37327;54.254;18.504;2023-01-31T02:56:30;99716.05;;;1.51;100.00
51259;BME280;37327;54.254;18.504;2023-01-31T02:59:38;99724.16;;;1.49;100.00
51259;BME280;37327;54.254;18.504;2023-01-31T03:02:45;99733.97;;;1.49;100.00
51259;BME280;37327;54.254;18.504;2023-01-31T03:09:20;99750.07;;;1.47;100.00
51259;BME280;37327;54.254;18.504;2023-01-31T03:19:35;99765.47;;;1.44;100.00
51259;BME280;37327;54.254;18.504;2023-01-31T03:26:03;99772.88;;;1.40;100.00
51259;BME280;37327;54.254;18.504;2023-01-31T03:29:14;99765.04;;;1.38;100.00
51259;BME280;37327;54.254;18.504;2023-01-31T03:32:28;99778.20;;;1.40;100.00
51259;BME280;37327;54.254;18.504;2023-01-31T03:35:38;99778.20;;;1.40;100.00
51259;BME280;37327;54.254;18.504;2023-01-31T03:42:11;99795.30;;;1.37;100.00
51259;BME280;37327;54.254;18.504;2023-01-31T03:45:29;99798.09;;;1.36;100.00
51259;BME280;37327;54.254;18.504;2023-01-31T03:48:42;99800.88;;;1.34;100.00
51259;BME280;37327;54.254;18.504;2023-01-31T03:51:57;99802.02;;;1.32;100.00
51259;BME280;37327;54.254;18.504;2023-01-31T03:55:18;99803.14;;;1.29;100.00
51259;BME280;37327;54.254;18.504;2023-01-31T03:58:31;99790.93;;;1.27;100.00
51259;BME280;37327;54.254;18.504;2023-01-31T04:01:45;99792.90;;;1.25;100.00
51259;BME280;37327;54.254;18.504;2023-01-31T04:08:18;99813.07;;;1.17;100.00
51259;BME280;37327;54.254;18.504;2023-01-31T04:11:26;99805.09;;;1.17;100.00
51259;BME280;37327;54.254;18.504;2023-01-31T04:14:33;99812.37;;;1.15;100.00
51259;BME280;37327;54.254;18.504;2023-01-31T04:17:40;99816.98;;;1.13;100.00
51259;BME280;37327;54.254;18.504;2023-01-31T04:20:47;99811.79;;;1.12;100.00
51259;BME280;37327;54.254;18.504;2023-01-31T04:23:53;99819.07;;;1.10;100.00
51259;BME280;37327;54.254;18.504;2023-01-31T04:27:00;99824.52;;;1.08;100.00
51259;BME280;37327;54.254;18.504;2023-01-31T04:30:08;99820.16;;;1.07;100.00
51259;BME280;37327;54.254;18.504;2023-01-31T04:33:16;99827.44;;;1.05;100.00
51259;BME280;37327;54.254;18.504;2023-01-31T04:36:26;99824.93;;;1.04;100.00
51259;BME280;37327;54.254;18.504;2023-01-31T04:39:32;99832.21;;;1.02;100.00
51259;BME280;37327;54.254;18.504;2023-01-31T04:42:39;99845.34;;;1.03;100.00
51259;BME280;37327;54.254;18.504;2023-01-31T04:45:46;99844.51;;;1.03;100.00
51259;BME280;37327;54.254;18.504;2023-01-31T04:48:53;99839.32;;;1.01;100.00
51259;BME280;37327;54.254;18.504;2023-01-31T04:52:00;99851.91;;;0.99;100.00
51259;BME280;37327;54.254;18.504;2023-01-31T04:55:08;99868.00;;;0.97;100.00
51259;BME280;37327;54.254;18.504;2023-01-31T04:58:15;99860.18;;;0.96;100.00
51259;BME280;37327;54.254;18.504;2023-01-31T05:01:22;99858.48;;;0.95;100.00
51259;BME280;37327;54.254;18.504;2023-01-31T05:04:29;99860.44;;;0.93;100.00
51259;BME280;37327;54.254;18.504;2023-01-31T05:07:37;99867.70;;;0.91;100.00
51259;BME280;37327;54.254;18.504;2023-01-31T05:10:45;99870.63;;;0.88;100.00
51259;BME280;37327;54.254;18.504;2023-01-31T05:13:51;99873.56;;;0.85;100.00
51259;BME280;37327;54.254;18.504;2023-01-31T05:16:58;99864.88;;;0.83;100.00
51259;BME280;37327;54.254;18.504;2023-01-31T05:20:07;99877.48;;;0.81;100.00
51259;BME280;37327;54.254;18.504;2023-01-31T05:23:14;99873.82;;;0.82;100.00
51259;BME280;37327;54.254;18.504;2023-01-31T05:26:20;99873.82;;;0.82;100.00
51259;BME280;37327;54.254;18.504;2023-01-31T05:29:29;99891.17;;;0.86;100.00
51259;BME280;37327;54.254;18.504;2023-01-31T05:32:37;99899.86;;;0.88;100.00
51259;BME280;37327;54.254;18.504;2023-01-31T05:35:47;99897.90;;;0.90;100.00
51259;BME280;37327;54.254;18.504;2023-01-31T05:38:55;99902.25;;;0.91;100.00
51259;BME280;37327;54.254;18.504;2023-01-31T05:42:02;99917.24;;;0.92;100.00
51259;BME280;37327;54.254;18.504;2023-01-31T05:45:10;99911.77;;;0.93;100.00
51259;BME280;37327;54.254;18.504;2023-01-31T05:48:21;99922.27;;;0.95;100.00
51259;BME280;37327;54.254;18.504;2023-01-31T05:51:28;99918.78;;;0.94;100.00
51259;BME280;37327;54.254;18.504;2023-01-31T05:54:35;99932.91;;;0.95;100.00
51259;BME280;37327;54.254;18.504;2023-01-31T05:57:42;99942.58;;;0.96;100.00
51259;BME280;37327;54.254;18.504;2023-01-31T06:00:48;99951.38;;;0.96;100.00
51259;BME280;37327;54.254;18.504;2023-01-31T06:03:56;99958.52;;;0.96;100.00
51259;BME280;37327;54.254;18.504;2023-01-31T06:07:06;99961.31;;;0.94;100.00
51259;BME280;37327;54.254;18.504;2023-01-31T06:10:13;99974.60;;;0.94;100.00
51259;BME280;37327;54.254;18.504;2023-01-31T06:13:20;99973.48;;;0.97;100.00
51259;BME280;37327;54.254;18.504;2023-01-31T06:16:27;99978.93;;;0.95;100.00
51259;BME280;37327;54.254;18.504;2023-01-31T06:19:34;99974.60;;;0.94;100.00
51259;BME280;37327;54.254;18.504;2023-01-31T06:22:41;99990.55;;;0.94;100.00
51259;BME280;37327;54.254;18.504;2023-01-31T06:25:52;99994.04;;;0.95;100.00
51259;BME280;37327;54.254;18.504;2023-01-31T06:29:00;100013.23;;;0.98;100.00
51259;BME280;37327;54.254;18.504;2023-01-31T06:32:07;100022.87;;;0.99;100.00
51259;BME280;37327;54.254;18.504;2023-01-31T06:35:15;100020.09;;;1.01;100.00
51259;BME280;37327;54.254;18.504;2023-01-31T06:40:41;100041.81;;;1.06;100.00
51259;BME280;37327;54.254;18.504;2023-01-31T06:43:48;100035.67;;;1.06;100.00
51259;BME280;37327;54.254;18.504;2023-01-31T06:46:56;100037.62;;;1.04;100.00
51259;BME280;37327;54.254;18.504;2023-01-31T06:50:04;100047.38;;;1.03;100.00
51259;BME280;37327;54.254;18.504;2023-01-31T06:53:10;100055.51;;;1.02;100.00
51259;BME280;37327;54.254;18.504;2023-01-31T06:56:44;100051.02;;;1.02;100.00
51259;BME280;37327;54.254;18.504;2023-01-31T06:59:50;100065.27;;;1.01;100.00
51259;BME280;37327;54.254;18.504;2023-01-31T07:02:57;100051.16;;;1.01;100.00
51259;BME280;37327;54.254;18.504;2023-01-31T07:06:06;100064.56;;;0.99;100.00
51259;BME280;37327;54.254;18.504;2023-01-31T07:09:14;100066.27;;;1.00;100.00
51259;BME280;37327;54.254;18.504;2023-01-31T07:12:21;100078.45;;;1.03;100.00
51259;BME280;37327;54.254;18.504;2023-01-31T07:15:54;100076.63;;;1.03;100.00
51259;BME280;37327;54.254;18.504;2023-01-31T07:19:01;100077.48;;;1.04;100.00
51259;BME280;37327;54.254;18.504;2023-01-31T07:22:08;100075.66;;;1.04;100.00
51259;BME280;37327;54.254;18.504;2023-01-31T07:25:15;100078.32;;;1.04;100.00
51259;BME280;37327;54.254;18.504;2023-01-31T07:28:21;100082.80;;;1.04;100.00
51259;BME280;37327;54.254;18.504;2023-01-31T07:31:28;100083.52;;;1.06;100.00
51259;BME280;37327;54.254;18.504;2023-01-31T07:34:36;100079.87;;;1.07;100.00
51259;BME280;37327;54.254;18.504;2023-01-31T07:38:08;100080.70;;;1.07;100.00
51259;BME280;37327;54.254;18.504;2023-01-31T07:41:15;100083.24;;;1.09;100.00
51259;BME280;37327;54.254;18.504;2023-01-31T07:44:22;100073.44;;;1.09;100.00
51259;BME280;37327;54.254;18.504;2023-01-31T07:47:30;100088.18;;;1.13;100.00
51259;BME280;37327;54.254;18.504;2023-01-31T07:50:37;100086.07;;;1.17;100.00
51259;BME280;37327;54.254;18.504;2023-01-31T07:53:44;100086.66;;;1.21;100.00
51259;BME280;37327;54.254;18.504;2023-01-31T07:57:16;100091.45;;;1.27;100.00
51259;BME280;37327;54.254;18.504;2023-01-31T08:00:23;100094.56;;;1.32;100.00
51259;BME280;37327;54.254;18.504;2023-01-31T08:03:41;100107.20;;;1.40;100.00
51259;BME280;37327;54.254;18.504;2023-01-31T08:06:52;100104.84;;;1.46;100.00
51259;BME280;37327;54.254;18.504;2023-01-31T08:10:00;100109.66;;;1.52;100.00
51259;BME280;37327;54.254;18.504;2023-01-31T08:13:33;100106.30;;;1.60;100.00
51259;BME280;37327;54.254;18.504;2023-01-31T08:16:40;100110.41;;;1.64;100.00
51259;BME280;37327;54.254;18.504;2023-01-31T08:19:47;100116.27;;;1.68;100.00
51259;BME280;37327;54.254;18.504;2023-01-31T08:22:55;100107.07;;;1.72;100.00
51259;BME280;37327;54.254;18.504;2023-01-31T08:26:10;100118.27;;;1.75;100.00
51259;BME280;37327;54.254;18.504;2023-01-31T08:29:17;100113.66;;;1.77;100.00
51259;BME280;37327;54.254;18.504;2023-01-31T08:32:54;100126.13;;;1.77;100.00
51259;BME280;37327;54.254;18.504;2023-01-31T08:36:11;100121.80;;;1.76;100.00
51259;BME280;37327;54.254;18.504;2023-01-31T08:39:19;100117.56;;;1.73;100.00
51259;BME280;37327;54.254;18.504;2023-01-31T08:42:26;100128.53;;;1.80;100.00
51259;BME280;37327;54.254;18.504;2023-01-31T08:45:33;100132.77;;;1.92;100.00
51259;BME280;37327;54.254;18.504;2023-01-31T08:49:05;100136.32;;;2.12;99.92
51259;BME280;37327;54.254;18.504;2023-01-31T08:52:14;100140.41;;;2.26;99.00
51259;BME280;37327;54.254;18.504;2023-01-31T08:55:21;100134.01;;;2.39;98.01
51259;BME280;37327;54.254;18.504;2023-01-31T08:58:30;100141.84;;;2.40;96.97
51259;BME280;37327;54.254;18.504;2023-01-31T09:01:38;100132.74;;;2.43;97.32
51259;BME280;37327;54.254;18.504;2023-01-31T09:04:50;100142.27;;;2.45;97.33
51259;BME280;37327;54.254;18.504;2023-01-31T09:07:58;100164.73;;;2.43;95.46
51259;BME280;37327;54.254;18.504;2023-01-31T09:11:05;100159.66;;;2.40;95.26
51259;BME280;37327;54.254;18.504;2023-01-31T09:14:12;100157.12;;;2.38;95.05
51259;BME280;37327;54.254;18.504;2023-01-31T09:17:20;100166.11;;;2.37;94.76
51259;BME280;37327;54.254;18.504;2023-01-31T09:20:26;100166.38;;;2.34;94.25
51259;BME280;37327;54.254;18.504;2023-01-31T09:23:34;100163.70;;;2.34;94.42
51259;BME280;37327;54.254;18.504;2023-01-31T09:26:41;100167.24;;;2.34;93.76
51259;BME280;37327;54.254;18.504;2023-01-31T09:29:48;100170.61;;;2.36;93.60
51259;BME280;37327;54.254;18.504;2023-01-31T09:32:55;100168.91;;;2.35;93.45
51259;BME280;37327;54.254;18.504;2023-01-31T09:36:11;100171.45;;;2.37;93.98
51259;BME280;37327;54.254;18.504;2023-01-31T09:39:18;100178.60;;;2.36;93.67
51259;BME280;37327;54.254;18.504;2023-01-31T09:42:33;100172.14;;;2.39;93.39
51259;BME280;37327;54.254;18.504;2023-01-31T09:45:43;100173.42;;;2.45;93.20
51259;BME280;37327;54.254;18.504;2023-01-31T09:48:54;100170.33;;;2.49;92.98
51259;BME280;37327;54.254;18.504;2023-01-31T09:52:04;100175.96;;;2.56;93.07
51259;BME280;37327;54.254;18.504;2023-01-31T09:55:22;100168.38;;;2.61;92.53
51259;BME280;37327;54.254;18.504;2023-01-31T09:58:41;100171.19;;;2.69;92.14
51259;BME280;37327;54.254;18.504;2023-01-31T10:02:02;100165.59;;;2.72;91.72
51259;BME280;37327;54.254;18.504;2023-01-31T10:08:37;100163.63;;;2.74;90.88
51259;BME280;37327;54.254;18.504;2023-01-31T10:11:58;100171.75;;;2.73;90.76
51259;BME280;37327;54.254;18.504;2023-01-31T10:15:12;100181.33;;;2.75;90.62
51259;BME280;37327;54.254;18.504;2023-01-31T10:21:53;100183.69;;;2.69;89.50
51259;BME280;37327;54.254;18.504;2023-01-31T10:38:35;100167.29;;;2.73;88.94
51259;BME280;37327;54.254;18.504;2023-01-31T10:45:15;100175.43;;;2.82;88.17
51259;BME280;37327;54.254;18.504;2023-01-31T10:48:23;100165.03;;;2.88;88.27
51259;BME280;37327;54.254;18.504;2023-01-31T10:51:40;100165.47;;;2.93;88.42
51259;BME280;37327;54.254;18.504;2023-01-31T10:58:16;100154.66;;;2.95;88.22
51259;BME280;37327;54.254;18.504;2023-01-31T11:01:25;100151.00;;;2.96;88.34
51259;BME280;37327;54.254;18.504;2023-01-31T11:04:38;100155.50;;;2.95;87.57
51259;BME280;37327;54.254;18.504;2023-01-31T11:07:46;100145.93;;;2.93;87.12
51259;BME280;37327;54.254;18.504;2023-01-31T11:10:56;100142.73;;;2.89;87.16
51259;BME280;37327;54.254;18.504;2023-01-31T11:14:05;100145.41;;;2.89;87.20
51259;BME280;37327;54.254;18.504;2023-01-31T11:17:21;100138.09;;;2.91;87.78
51259;BME280;37327;54.254;18.504;2023-01-31T11:20:31;100126.16;;;2.95;87.91
51259;BME280;37327;54.254;18.504;2023-01-31T11:23:43;100135.25;;;3.03;88.16
51259;BME280;37327;54.254;18.504;2023-01-31T11:26:59;100130.48;;;3.06;87.63
51259;BME280;37327;54.254;18.504;2023-01-31T11:36:43;100118.70;;;3.19;86.18
51259;BME280;37327;54.254;18.504;2023-01-31T11:40:00;100104.91;;;3.23;85.82
51259;BME280;37327;54.254;18.504;2023-01-31T11:46:28;100109.28;;;3.24;83.44
51259;BME280;37327;54.254;18.504;2023-01-31T11:49:41;100114.45;;;3.26;82.83
51259;BME280;37327;54.254;18.504;2023-01-31T11:52:55;100093.96;;;3.26;82.11
51259;BME280;37327;54.254;18.504;2023-01-31T11:59:25;100088.07;;;3.23;81.10
51259;BME280;37327;54.254;18.504;2023-01-31T12:02:39;100076.95;;;3.27;81.60
51259;BME280;37327;54.254;18.504;2023-01-31T12:05:58;100063.61;;;3.27;81.45
51259;BME280;37327;54.254;18.504;2023-01-31T12:09:05;100065.30;;;3.28;81.36
51259;BME280;37327;54.254;18.504;2023-01-31T12:16:00;100067.11;;;3.28;81.29
51259;BME280;37327;54.254;18.504;2023-01-31T12:22:25;100060.49;;;3.32;80.78
51259;BME280;37327;54.254;18.504;2023-01-31T12:32:22;100053.21;;;3.34;81.07
51259;BME280;37327;54.254;18.504;2023-01-31T13:02:30;100009.14;;;3.20;81.92
51259;BME280;37327;54.254;18.504;2023-01-31T13:05:43;100001.00;;;3.22;81.21
51259;BME280;37327;54.254;18.504;2023-01-31T13:09:00;99998.20;;;3.23;81.28
51259;BME280;37327;54.254;18.504;2023-01-31T13:18:46;99990.05;;;3.25;80.65
51259;BME280;37327;54.254;18.504;2023-01-31T13:21:57;99997.05;;;3.26;81.38
51259;BME280;37327;54.254;18.504;2023-01-31T13:25:15;100001.14;;;3.20;82.08
51259;BME280;37327;54.254;18.504;2023-01-31T13:28:32;99996.71;;;3.11;83.58
51259;BME280;37327;54.254;18.504;2023-01-31T13:31:47;99999.41;;;3.01;84.81
51259;BME280;37327;54.254;18.504;2023-01-31T13:35:12;99991.00;;;2.96;86.15
51259;BME280;37327;54.254;18.504;2023-01-31T13:38:20;99986.12;;;2.91;87.29
51259;BME280;37327;54.254;18.504;2023-01-31T13:41:30;99991.59;;;2.90;87.82
51259;BME280;37327;54.254;18.504;2023-01-31T13:44:37;99978.95;;;2.92;88.76
51259;BME280;37327;54.254;18.504;2023-01-31T13:47:50;99995.35;;;2.97;89.14
51259;BME280;37327;54.254;18.504;2023-01-31T13:51:10;99981.71;;;3.00;89.18
51259;BME280;37327;54.254;18.504;2023-01-31T13:54:24;99974.71;;;2.99;89.45
51259;BME280;37327;54.254;18.504;2023-01-31T13:57:42;99971.63;;;2.94;89.70
51259;BME280;37327;54.254;18.504;2023-01-31T14:04:21;99967.45;;;2.91;90.46
51259;BME280;37327;54.254;18.504;2023-01-31T14:07:29;99967.45;;;2.91;90.76
51259;BME280;37327;54.254;18.504;2023-01-31T14:10:42;99952.28;;;2.92;90.98
51259;BME280;37327;54.254;18.504;2023-01-31T14:14:09;99948.47;;;2.94;90.92
51259;BME280;37327;54.254;18.504;2023-01-31T14:20:27;99941.86;;;2.99;90.51
51259;BME280;37327;54.254;18.504;2023-01-31T14:23:43;99950.16;;;2.95;90.45
51259;BME280;37327;54.254;18.504;2023-01-31T14:26:53;99950.30;;;2.94;90.40
51259;BME280;37327;54.254;18.504;2023-01-31T14:33:24;99940.22;;;2.88;90.29
51259;BME280;37327;54.254;18.504;2023-01-31T14:36:43;99935.03;;;2.86;90.35
51259;BME280;37327;54.254;18.504;2023-01-31T14:40:06;99938.98;;;2.82;90.31
51259;BME280;37327;54.254;18.504;2023-01-31T14:46:46;99927.66;;;2.70;90.68
51259;BME280;37327;54.254;18.504;2023-01-31T14:59:59;99923.07;;;2.53;91.49
51259;BME280;37327;54.254;18.504;2023-01-31T15:03:13;99918.32;;;2.47;91.69
51259;BME280;37327;54.254;18.504;2023-01-31T15:06:29;99917.90;;;2.42;91.75
51259;BME280;37327;54.254;18.504;2023-01-31T15:09:38;99900.84;;;2.34;92.13
51259;BME280;37327;54.254;18.504;2023-01-31T15:12:53;99903.77;;;2.31;92.30
51259;BME280;37327;54.254;18.504;2023-01-31T15:16:06;99906.02;;;2.26;92.68
51259;BME280;37327;54.254;18.504;2023-01-31T15:19:20;99899.98;;;2.24;92.70
51259;BME280;37327;54.254;18.504;2023-01-31T15:22:32;99885.98;;;2.22;92.90
51259;BME280;37327;54.254;18.504;2023-01-31T15:25:47;99880.79;;;2.21;93.28
51259;BME280;37327;54.254;18.504;2023-01-31T15:28:56;99885.42;;;2.18;93.57
51259;BME280;37327;54.254;18.504;2023-01-31T15:35:33;99876.20;;;2.13;94.04
51259;BME280;37327;54.254;18.504;2023-01-31T15:38:48;99870.33;;;2.09;94.55
51259;BME280;37327;54.254;18.504;2023-01-31T15:42:18;99871.42;;;2.07;95.12
51259;BME280;37327;54.254;18.504;2023-01-31T15:45:24;99869.20;;;2.02;95.60
51259;BME280;37327;54.254;18.504;2023-01-31T15:48:33;99864.32;;;1.97;96.05
51259;BME280;37327;54.254;18.504;2023-01-31T15:51:42;99864.45;;;1.96;96.40
51259;BME280;37327;54.254;18.504;2023-01-31T15:54:56;99854.93;;;1.93;96.62
51259;BME280;37327;54.254;18.504;2023-01-31T15:58:05;99850.71;;;1.91;96.97
51259;BME280;37327;54.254;18.504;2023-01-31T16:01:14;99838.54;;;1.88;97.37
51259;BME280;37327;54.254;18.504;2023-01-31T16:04:23;99836.84;;;1.87;97.75
51259;BME280;37327;54.254;18.504;2023-01-31T16:07:29;99835.17;;;1.86;98.17
51259;BME280;37327;54.254;18.504;2023-01-31T16:10:36;99833.48;;;1.85;98.46
51259;BME280;37327;54.254;18.504;2023-01-31T16:13:45;99822.83;;;1.85;98.77
51259;BME280;37327;54.254;18.504;2023-01-31T16:16:54;99819.48;;;1.83;99.14
51259;BME280;37327;54.254;18.504;2023-01-31T16:20:02;99817.81;;;1.82;99.58
51259;BME280;37327;54.254;18.504;2023-01-31T16:23:38;99798.49;;;1.80;99.95
51259;BME280;37327;54.254;18.504;2023-01-31T16:26:32;99788.94;;;1.77;100.00
51259;BME280;37327;54.254;18.504;2023-01-31T16:29:45;99762.77;;;1.73;100.00
51259;BME280;37327;54.254;18.504;2023-01-31T16:32:52;99762.77;;;1.73;100.00
51259;BME280;37327;54.254;18.504;2023-01-31T16:36:10;99758.72;;;1.69;100.00
51259;BME280;37327;54.254;18.504;2023-01-31T16:42:40;99765.45;;;1.63;100.00
51259;BME280;37327;54.254;18.504;2023-01-31T16:45:54;99747.27;;;1.58;100.00
51259;BME280;37327;54.254;18.504;2023-01-31T16:49:05;99740.69;;;1.53;100.00
51259;BME280;37327;54.254;18.504;2023-01-31T16:52:27;99725.30;;;1.47;100.00
51259;BME280;37327;54.254;18.504;2023-01-31T16:55:37;99718.72;;;1.41;100.00
51259;BME280;37327;54.254;18.504;2023-01-31T16:58:52;99720.69;;;1.39;100.00
51259;BME280;37327;54.254;18.504;2023-01-31T17:02:11;99706.70;;;1.37;100.00
51259;BME280;37327;54.254;18.504;2023-01-31T17:05:22;99692.40;;;1.38;100.00
51259;BME280;37327;54.254;18.504;2023-01-31T17:08:36;99691.70;;;1.36;100.00
51259;BME280;37327;54.254;18.504;2023-01-31T17:11:46;99690.04;;;1.35;100.00
51259;BME280;37327;54.254;18.504;2023-01-31T17:14:54;99671.55;;;1.33;100.00
51259;BME280;37327;54.254;18.504;2023-01-31T17:18:04;99661.89;;;1.32;100.00
51259;BME280;37327;54.254;18.504;2023-01-31T17:21:12;99660.09;;;1.33;100.00
51259;BME280;37327;54.254;18.504;2023-01-31T17:24:19;99650.42;;;1.32;100.00
51259;BME280;37327;54.254;18.504;2023-01-31T17:27:27;99644.41;;;1.30;100.00
51259;BME280;37327;54.254;18.504;2023-01-31T17:30:40;99639.92;;;1.30;100.00
51259;BME280;37327;54.254;18.504;2023-01-31T17:33:51;99628.73;;;1.27;100.00
51259;BME280;37327;54.254;18.504;2023-01-31T17:36:58;99618.09;;;1.27;100.00
51259;BME280;37327;54.254;18.504;2023-01-31T17:40:05;99608.45;;;1.26;100.00
51259;BME280;37327;54.254;18.504;2023-01-31T17:43:19;99593.45;;;1.25;100.00
51259;BME280;37327;54.254;18.504;2023-01-31T17:46:27;99577.51;;;1.25;100.00
51259;BME280;37327;54.254;18.504;2023-01-31T17:49:36;99556.41;;;1.23;100.00
51259;BME280;37327;54.254;18.504;2023-01-31T17:52:43;99551.22;;;1.22;100.00
51259;BME280;37327;54.254;18.504;2023-01-31T17:55:51;99546.88;;;1.21;100.00
51259;BME280;37327;54.254;18.504;2023-01-31T17:58:58;99533.58;;;1.21;100.00
51259;BME280;37327;54.254;18.504;2023-01-31T18:02:09;99540.73;;;1.20;100.00
51259;BME280;37327;54.254;18.504;2023-01-31T18:05:18;99531.91;;;1.20;100.00
51259;BME280;37327;54.254;18.504;2023-01-31T18:08:29;99519.46;;;1.20;100.00
51259;BME280;37327;54.254;18.504;2023-01-31T18:11:37;99518.63;;;1.20;100.00
51259;BME280;37327;54.254;18.504;2023-01-31T18:14:49;99492.88;;;1.20;100.00
51259;BME280;37327;54.254;18.504;2023-01-31T18:17:57;99491.18;;;1.19;100.00
51259;BME280;37327;54.254;18.504;2023-01-31T18:21:07;99486.72;;;1.20;100.00
51259;BME280;37327;54.254;18.504;2023-01-31T18:24:14;99467.26;;;1.19;100.00
51259;BME280;37327;54.254;18.504;2023-01-31T18:27:21;99464.77;;;1.17;100.00
51259;BME280;37327;54.254;18.504;2023-01-31T18:30:28;99458.08;;;1.13;100.00
51259;BME280;37327;54.254;18.504;2023-01-31T18:33:36;99447.71;;;1.10;100.00
51259;BME280;37327;54.254;18.504;2023-01-31T18:36:43;99437.37;;;1.07;100.00
51259;BME280;37327;54.254;18.504;2023-01-31T18:39:51;99421.72;;;1.04;100.00
51259;BME280;37327;54.254;18.504;2023-01-31T18:42:59;99408.44;;;1.04;100.00
51259;BME280;37327;54.254;18.504;2023-01-31T18:46:07;99405.64;;;1.06;100.00
51259;BME280;37327;54.254;18.504;2023-01-31T18:49:15;99392.17;;;1.07;100.00
51259;BME280;37327;54.254;18.504;2023-01-31T18:52:24;99384.05;;;1.09;100.00
51259;BME280;37327;54.254;18.504;2023-01-31T18:55:32;99373.28;;;1.10;100.00
51259;BME280;37327;54.254;18.504;2023-01-31T18:58:40;99363.20;;;1.14;100.00
51259;BME280;37327;54.254;18.504;2023-01-31T19:01:52;99352.23;;;1.17;100.00
51259;BME280;37327;54.254;18.504;2023-01-31T19:04:59;99345.80;;;1.20;100.00
51259;BME280;37327;54.254;18.504;2023-01-31T19:08:07;99324.36;;;1.21;100.00
51259;BME280;37327;54.254;18.504;2023-01-31T19:11:16;99324.22;;;1.23;100.00
51259;BME280;37327;54.254;18.504;2023-01-31T19:14:23;99317.62;;;1.27;100.00
51259;BME280;37327;54.254;18.504;2023-01-31T19:17:30;99311.33;;;1.28;100.00